createdAt,value
2018-04-24T00:00:15.762Z,11.40
2018-04-24T00:02:44.667Z,11.40
2018-04-24T00:05:12.805Z,11.40
2018-04-24T00:07:40.931Z,11.40
2018-04-24T00:10:09.085Z,11.40
2018-04-24T00:12:38.000Z,11.30
2018-04-24T00:15:06.135Z,11.30
2018-04-24T00:17:35.033Z,11.30
2018-04-24T00:20:03.961Z,11.20
2018-04-24T00:22:32.102Z,11.20
2018-04-24T00:25:00.996Z,11.20
2018-04-24T00:27:29.144Z,11.20
2018-04-24T00:29:58.028Z,11.20
2018-04-24T00:32:26.948Z,11.10
2018-04-24T00:34:55.837Z,11.10
2018-04-24T00:37:24.751Z,11.10
2018-04-24T00:39:52.901Z,11.10
2018-04-24T00:42:21.831Z,11.10
2018-04-24T00:44:49.960Z,11.00
2018-04-24T00:47:18.850Z,11.10
2018-04-24T00:49:47.765Z,11.00
2018-04-24T00:52:15.900Z,11.00
2018-04-24T00:54:44.808Z,11.00
2018-04-24T00:57:13.696Z,11.00
2018-04-24T00:59:42.594Z,11.00
2018-04-24T01:02:11.512Z,11.00
2018-04-24T01:04:39.636Z,11.00
2018-04-24T01:07:07.776Z,11.00
2018-04-24T01:09:35.924Z,11.00
2018-04-24T01:12:04.053Z,11.00
2018-04-24T01:14:33.000Z,11.00
2018-04-24T01:17:01.104Z,11.00
2018-04-24T01:19:29.226Z,11.00
2018-04-24T01:21:57.378Z,11.00
2018-04-24T01:24:26.391Z,11.00
2018-04-24T01:26:54.533Z,11.00
2018-04-24T01:29:23.421Z,11.00
2018-04-24T01:31:52.323Z,11.00
2018-04-24T01:34:21.225Z,11.00
2018-04-24T01:36:50.152Z,11.00
2018-04-24T01:39:18.310Z,10.90
2018-04-24T01:41:46.467Z,11.00
2018-04-24T01:44:14.611Z,10.90
2018-04-24T01:46:42.742Z,10.90
2018-04-24T01:49:10.875Z,10.90
2018-04-24T01:51:39.810Z,10.90
2018-04-24T01:54:07.946Z,10.90
2018-04-24T01:56:36.837Z,10.80
2018-04-24T01:59:04.995Z,10.80
2018-04-24T02:01:33.898Z,10.80
2018-04-24T02:04:02.047Z,10.80
2018-04-24T02:06:30.945Z,10.80
2018-04-24T02:08:59.871Z,10.80
2018-04-24T02:11:28.047Z,10.70
2018-04-24T02:13:56.189Z,10.70
2018-04-24T02:16:25.110Z,10.70
2018-04-24T02:18:53.280Z,10.70
2018-04-24T02:21:21.456Z,10.70
2018-04-24T02:23:49.603Z,10.70
2018-04-24T02:26:18.488Z,10.70
2018-04-24T02:28:47.410Z,10.70
2018-04-24T02:31:15.586Z,10.70
2018-04-24T02:33:43.728Z,10.60
2018-04-24T02:36:12.630Z,10.70
2018-04-24T02:38:40.771Z,10.60
2018-04-24T02:41:08.922Z,10.60
2018-04-24T02:43:37.057Z,10.60
2018-04-24T02:46:05.190Z,10.60
2018-04-24T02:48:33.316Z,10.60
2018-04-24T02:51:01.588Z,10.60
2018-04-24T02:53:29.784Z,10.60
2018-04-24T02:55:57.904Z,10.60
2018-04-24T02:58:26.791Z,10.60
2018-04-24T03:00:55.701Z,10.60
2018-04-24T03:03:23.841Z,10.60
2018-04-24T03:05:51.963Z,10.60
2018-04-24T03:08:20.084Z,10.60
2018-04-24T03:10:49.007Z,10.60
2018-04-24T03:13:17.202Z,10.50
2018-04-24T03:15:45.367Z,10.60
2018-04-24T03:18:13.504Z,10.60
2018-04-24T03:20:42.419Z,10.60
2018-04-24T03:23:11.434Z,10.50
2018-04-24T03:25:39.565Z,10.50
2018-04-24T03:28:08.460Z,10.60
2018-04-24T03:30:37.371Z,10.60
2018-04-24T03:33:05.513Z,10.60
2018-04-24T03:35:35.711Z,10.60
2018-04-24T03:38:03.837Z,10.60
2018-04-24T03:40:31.987Z,10.60
2018-04-24T03:43:00.906Z,10.70
2018-04-24T03:45:29.039Z,10.70
2018-04-24T03:47:57.927Z,10.70
2018-04-24T03:50:26.853Z,10.70
2018-04-24T03:52:55.012Z,10.70
2018-04-24T03:55:23.908Z,10.70
2018-04-24T03:57:52.796Z,10.70
2018-04-24T04:00:21.711Z,10.70
2018-04-24T04:02:49.852Z,10.70
2018-04-24T04:05:18.751Z,10.70
2018-04-24T04:07:47.651Z,10.70
2018-04-24T04:10:15.811Z,10.70
2018-04-24T04:12:44.825Z,10.80
2018-04-24T04:15:12.959Z,10.70
2018-04-24T04:17:54.455Z,10.70
2018-04-24T04:20:35.341Z,10.80
2018-04-24T04:23:17.203Z,10.80
2018-04-24T04:25:45.335Z,10.80
2018-04-24T04:28:13.513Z,10.80
2018-04-24T04:30:41.635Z,10.80
2018-04-24T04:33:10.540Z,10.80
2018-04-24T04:35:39.479Z,10.90
2018-04-24T04:38:07.619Z,10.80
2018-04-24T04:40:35.757Z,10.90
2018-04-24T04:43:04.673Z,10.90
2018-04-24T04:45:33.567Z,10.90
2018-04-24T04:48:02.486Z,11.00
2018-04-24T04:50:30.646Z,11.00
2018-04-24T04:52:58.797Z,11.10
2018-04-24T04:55:27.692Z,11.20
2018-04-24T04:57:56.583Z,11.20
2018-04-24T05:00:24.730Z,11.20
2018-04-24T05:02:53.678Z,11.30
2018-04-24T05:05:21.869Z,11.30
2018-04-24T05:07:50.694Z,11.40
2018-04-24T05:10:19.613Z,11.50
2018-04-24T05:12:47.757Z,11.50
2018-04-24T05:15:16.668Z,11.60
2018-04-24T05:17:45.551Z,11.60
2018-04-24T05:20:13.787Z,11.60
2018-04-24T05:22:41.905Z,11.70
2018-04-24T05:25:10.037Z,11.70
2018-04-24T05:27:38.173Z,11.80
2018-04-24T05:30:06.325Z,11.80
2018-04-24T05:32:34.522Z,11.80
2018-04-24T05:35:02.645Z,11.90
2018-04-24T05:37:31.550Z,12.00
2018-04-24T05:40:00.493Z,12.00
2018-04-24T05:42:28.621Z,12.00
2018-04-24T05:44:56.764Z,12.10
2018-04-24T05:47:24.900Z,12.20
2018-04-24T05:49:53.174Z,12.20
2018-04-24T05:52:21.389Z,12.20
2018-04-24T05:54:49.500Z,12.30
2018-04-24T05:57:17.644Z,12.30
2018-04-24T05:59:46.590Z,12.40
2018-04-24T06:02:14.728Z,12.40
2018-04-24T06:04:42.904Z,12.40
2018-04-24T06:07:11.032Z,12.50
2018-04-24T06:09:39.297Z,12.50
2018-04-24T06:12:07.460Z,12.60
2018-04-24T06:14:35.619Z,12.60
2018-04-24T06:17:03.745Z,12.60
2018-04-24T06:19:31.926Z,12.60
2018-04-24T06:22:00.833Z,12.70
2018-04-24T06:24:29.750Z,12.70
2018-04-24T06:26:57.884Z,12.70
2018-04-24T06:29:26.792Z,12.80
2018-04-24T06:31:54.980Z,12.80
2018-04-24T06:34:23.126Z,12.80
2018-04-24T06:36:52.029Z,12.90
2018-04-24T06:39:20.197Z,12.90
2018-04-24T06:41:48.351Z,12.90
2018-04-24T06:44:17.277Z,13.00
2018-04-24T06:46:45.413Z,13.00
2018-04-24T06:49:14.453Z,13.10
2018-04-24T06:51:43.339Z,13.10
2018-04-24T06:54:11.529Z,13.10
2018-04-24T06:56:39.655Z,13.20
2018-04-24T06:59:08.559Z,13.20
2018-04-24T07:01:37.555Z,13.20
2018-04-24T07:04:05.691Z,13.20
2018-04-24T07:06:33.825Z,13.30
2018-04-24T07:09:01.981Z,13.30
2018-04-24T07:11:30.126Z,13.30
2018-04-24T07:13:59.037Z,13.30
2018-04-24T07:16:27.201Z,13.20
2018-04-24T07:18:56.107Z,13.20
2018-04-24T07:21:24.980Z,13.20
2018-04-24T07:23:54.027Z,13.20
2018-04-24T07:26:22.142Z,13.20
2018-04-24T07:28:51.041Z,13.30
2018-04-24T07:31:19.969Z,13.30
2018-04-24T07:33:48.130Z,13.30
2018-04-24T07:36:16.259Z,13.30
2018-04-24T07:38:44.471Z,13.40
2018-04-24T07:41:12.624Z,13.40
2018-04-24T07:43:41.548Z,13.60
2018-04-24T07:46:09.687Z,13.60
2018-04-24T07:48:38.581Z,13.70
2018-04-24T07:51:07.500Z,13.70
2018-04-24T07:53:35.638Z,13.70
2018-04-24T07:56:04.533Z,13.80
2018-04-24T07:58:33.444Z,13.80
2018-04-24T08:01:01.619Z,13.80
2018-04-24T08:03:29.753Z,13.90
2018-04-24T08:05:57.886Z,13.90
2018-04-24T08:08:26.031Z,13.90
2018-04-24T08:10:54.929Z,14.10
2018-04-24T08:13:23.081Z,14.10
2018-04-24T08:15:51.974Z,14.30
2018-04-24T08:18:20.895Z,14.40
2018-04-24T08:20:49.073Z,14.40
2018-04-24T08:23:17.237Z,14.50
2018-04-24T08:25:45.393Z,14.60
2018-04-24T08:28:14.296Z,14.90
2018-04-24T08:30:42.476Z,14.90
2018-04-24T08:33:10.625Z,15.00
2018-04-24T08:35:39.532Z,15.00
2018-04-24T08:38:07.671Z,15.00
2018-04-24T08:40:35.896Z,15.10
2018-04-24T08:43:04.034Z,15.10
2018-04-24T08:45:32.174Z,15.10
2018-04-24T08:48:00.421Z,15.10
2018-04-24T08:50:28.521Z,15.10
2018-04-24T08:52:57.438Z,15.10
2018-04-24T08:55:26.350Z,15.00
2018-04-24T08:57:54.518Z,15.00
2018-04-24T09:00:23.412Z,15.00
2018-04-24T09:02:51.551Z,15.00
2018-04-24T09:05:20.306Z,15.00
2018-04-24T09:07:48.439Z,15.10
2018-04-24T09:10:17.448Z,15.10
2018-04-24T09:12:45.588Z,15.10
2018-04-24T09:15:14.517Z,15.10
2018-04-24T09:17:42.659Z,15.10
2018-04-24T09:20:11.572Z,15.10
2018-04-24T09:22:39.691Z,15.10
2018-04-24T09:25:08.006Z,15.20
2018-04-24T09:27:36.904Z,15.40
2018-04-24T09:30:05.048Z,15.40
2018-04-24T09:32:33.194Z,15.50
2018-04-24T09:35:01.341Z,15.60
2018-04-24T09:37:29.471Z,15.70
2018-04-24T09:39:57.617Z,15.80
2018-04-24T09:42:25.745Z,15.90
2018-04-24T09:44:53.884Z,16.00
2018-04-24T09:47:22.034Z,16.10
2018-04-24T09:49:50.168Z,16.20
2018-04-24T09:52:18.293Z,16.20
2018-04-24T09:54:46.531Z,16.30
2018-04-24T09:57:14.698Z,16.30
2018-04-24T09:59:42.853Z,16.40
2018-04-24T10:02:11.761Z,16.40
2018-04-24T10:04:39.905Z,16.40
2018-04-24T10:07:08.840Z,16.50
2018-04-24T10:09:36.970Z,16.50
2018-04-24T10:12:05.866Z,16.80
2018-04-24T10:14:34.761Z,16.90
2018-04-24T10:17:03.664Z,16.90
2018-04-24T10:19:31.828Z,16.90
2018-04-24T10:21:59.984Z,16.90
2018-04-24T10:24:28.114Z,17.00
2018-04-24T10:26:56.242Z,17.00
2018-04-24T10:29:25.267Z,17.20
2018-04-24T10:31:53.404Z,17.30
2018-04-24T10:34:22.330Z,17.40
2018-04-24T10:36:50.775Z,17.40
2018-04-24T10:39:19.685Z,17.60
2018-04-24T10:41:47.819Z,17.50
2018-04-24T10:44:15.955Z,17.60
2018-04-24T10:46:44.227Z,17.60
2018-04-24T10:49:12.359Z,17.50
2018-04-24T10:51:41.283Z,17.50
2018-04-24T10:54:10.146Z,17.40
2018-04-24T10:56:39.067Z,17.40
2018-04-24T10:59:07.214Z,17.40
2018-04-24T11:01:36.106Z,17.40
2018-04-24T11:04:04.229Z,17.40
2018-04-24T11:06:32.407Z,17.40
2018-04-24T11:09:00.516Z,17.40
2018-04-24T11:11:29.444Z,17.40
2018-04-24T11:13:57.577Z,17.40
2018-04-24T11:16:26.509Z,17.70
2018-04-24T11:18:54.667Z,17.60
2018-04-24T11:21:22.863Z,17.70
2018-04-24T11:23:50.968Z,17.80
2018-04-24T11:26:19.097Z,17.70
2018-04-24T11:28:47.261Z,17.70
2018-04-24T11:31:15.438Z,17.70
2018-04-24T11:33:43.618Z,17.70
2018-04-24T11:36:11.780Z,17.70
2018-04-24T11:38:39.908Z,17.70
2018-04-24T11:41:08.053Z,17.70
2018-04-24T11:43:36.196Z,17.60
2018-04-24T11:46:04.327Z,17.60
2018-04-24T11:48:32.473Z,17.50
2018-04-24T11:51:00.604Z,17.60
2018-04-24T11:53:29.513Z,17.60
2018-04-24T11:55:57.680Z,17.60
2018-04-24T11:58:25.794Z,17.70
2018-04-24T12:00:53.956Z,17.80
2018-04-24T12:03:22.090Z,17.80
2018-04-24T12:05:50.991Z,17.90
2018-04-24T12:08:19.129Z,17.90
2018-04-24T12:10:47.281Z,17.90
2018-04-24T12:13:15.409Z,17.90
2018-04-24T12:15:43.541Z,18.10
2018-04-24T12:18:11.687Z,18.10
2018-04-24T12:20:39.862Z,18.20
2018-04-24T12:23:07.985Z,18.30
2018-04-24T12:25:36.895Z,18.60
2018-04-24T12:28:05.048Z,18.60
2018-04-24T12:30:34.020Z,18.70
2018-04-24T12:33:02.089Z,18.70
2018-04-24T12:35:30.309Z,18.80
2018-04-24T12:37:58.466Z,18.80
2018-04-24T12:40:27.366Z,18.90
2018-04-24T12:42:55.480Z,18.90
2018-04-24T12:45:23.642Z,18.90
2018-04-24T12:47:51.788Z,18.80
2018-04-24T12:50:20.700Z,18.70
2018-04-24T12:52:48.866Z,18.60
2018-04-24T12:55:17.038Z,18.70
2018-04-24T12:57:45.216Z,18.60
2018-04-24T13:00:13.316Z,18.60
2018-04-24T13:02:41.564Z,18.60
2018-04-24T13:05:09.696Z,18.60
2018-04-24T13:07:37.830Z,18.50
2018-04-24T13:10:06.048Z,18.60
2018-04-24T13:12:34.131Z,18.60
2018-04-24T13:15:02.257Z,18.80
2018-04-24T13:17:30.498Z,18.90
2018-04-24T13:19:58.644Z,19.00
2018-04-24T13:22:27.548Z,19.30
2018-04-24T13:24:55.688Z,19.20
2018-04-24T13:27:23.803Z,19.30
2018-04-24T13:29:51.932Z,19.40
2018-04-24T13:32:20.152Z,19.60
2018-04-24T13:34:48.268Z,19.60
2018-04-24T13:37:16.596Z,19.70
2018-04-24T13:39:44.648Z,19.80
2018-04-24T13:42:13.627Z,19.70
2018-04-24T13:44:41.693Z,19.70
2018-04-24T13:47:09.820Z,19.80
2018-04-24T13:49:37.955Z,19.80
2018-04-24T13:52:06.858Z,19.90
2018-04-24T13:54:35.776Z,19.90
2018-04-24T13:57:03.890Z,19.90
2018-04-24T13:59:32.031Z,20.00
2018-04-24T14:02:00.160Z,20.10
2018-04-24T14:04:29.058Z,20.00
2018-04-24T14:06:57.218Z,20.00
2018-04-24T14:09:25.382Z,19.90
2018-04-24T14:11:53.546Z,19.90
2018-04-24T14:14:23.176Z,19.80
2018-04-24T14:16:52.067Z,19.80
2018-04-24T14:19:20.998Z,19.80
2018-04-24T14:21:49.274Z,19.80
2018-04-24T14:24:17.318Z,19.90
2018-04-24T14:26:46.284Z,20.00
2018-04-24T14:29:14.400Z,19.90
2018-04-24T14:31:42.535Z,20.00
2018-04-24T14:34:10.701Z,19.90
2018-04-24T14:36:38.826Z,20.00
2018-04-24T14:39:06.967Z,20.10
2018-04-24T14:41:35.878Z,20.20
2018-04-24T14:44:04.056Z,20.20
2018-04-24T14:46:32.180Z,20.20
2018-04-24T14:49:00.300Z,20.30
2018-04-24T14:51:28.456Z,20.30
2018-04-24T14:53:57.378Z,20.50
2018-04-24T14:56:25.657Z,20.50
2018-04-24T14:58:53.764Z,20.50
2018-04-24T15:01:22.003Z,20.50
2018-04-24T15:03:50.163Z,20.50
2018-04-24T15:06:18.287Z,20.50
2018-04-24T15:08:46.425Z,20.50
2018-04-24T15:11:14.587Z,20.60
2018-04-24T15:13:42.734Z,20.60
2018-04-24T15:16:11.657Z,20.60
2018-04-24T15:18:39.801Z,20.60
2018-04-24T15:21:08.737Z,20.60
2018-04-24T15:23:36.884Z,20.60
2018-04-24T15:26:05.009Z,20.60
2018-04-24T15:28:33.145Z,20.60
2018-04-24T15:31:01.263Z,20.70
2018-04-24T15:33:29.477Z,20.70
2018-04-24T15:35:57.600Z,20.80
2018-04-24T15:38:25.729Z,20.80
2018-04-24T15:40:53.902Z,20.80
2018-04-24T15:43:22.057Z,20.80
2018-04-24T15:45:50.187Z,20.80
2018-04-24T15:48:18.303Z,20.70
2018-04-24T15:50:47.280Z,20.70
2018-04-24T15:53:16.178Z,20.70
2018-04-24T15:55:45.103Z,20.70
2018-04-24T15:58:13.233Z,20.70
2018-04-24T16:00:41.432Z,20.70
2018-04-24T16:03:09.711Z,20.70
2018-04-24T16:05:37.910Z,20.70
2018-04-24T16:08:06.046Z,20.80
2018-04-24T16:10:34.927Z,20.80
2018-04-24T16:13:03.848Z,20.80
2018-04-24T16:15:31.980Z,20.80
2018-04-24T16:18:00.113Z,20.80
2018-04-24T16:20:28.379Z,20.80
2018-04-24T16:22:56.505Z,20.80
2018-04-24T16:25:24.677Z,20.80
2018-04-24T16:27:52.817Z,20.80
2018-04-24T16:30:20.957Z,20.70
2018-04-24T16:32:49.103Z,20.60
2018-04-24T16:35:18.013Z,20.60
2018-04-24T16:37:46.145Z,20.50
2018-04-24T16:40:14.268Z,20.50
2018-04-24T16:42:42.403Z,20.50
2018-04-24T16:45:11.324Z,20.40
2018-04-24T16:47:39.516Z,20.40
2018-04-24T16:50:07.691Z,20.40
2018-04-24T16:52:35.848Z,20.30
2018-04-24T16:55:03.970Z,20.40
2018-04-24T16:57:32.099Z,20.40
2018-04-24T17:00:00.231Z,20.40
2018-04-24T17:02:28.385Z,20.30
2018-04-24T17:04:56.553Z,20.30
2018-04-24T17:07:24.721Z,20.20
2018-04-24T17:09:52.844Z,20.10
2018-04-24T17:12:21.736Z,20.10
2018-04-24T17:14:50.642Z,20.10
2018-04-24T17:17:18.791Z,20.10
2018-04-24T17:19:47.689Z,20.00
2018-04-24T17:22:16.575Z,20.00
2018-04-24T17:24:46.232Z,19.90
2018-04-24T17:27:14.372Z,19.90
2018-04-24T17:29:43.271Z,19.80
2018-04-24T17:32:11.410Z,19.80
2018-04-24T17:34:39.639Z,19.80
2018-04-24T17:37:07.779Z,19.90
2018-04-24T17:39:36.684Z,19.90
2018-04-24T17:42:04.827Z,19.90
2018-04-24T17:44:32.961Z,19.90
2018-04-24T17:47:01.112Z,19.80
2018-04-24T17:49:29.232Z,19.80
2018-04-24T17:51:57.360Z,19.70
2018-04-24T17:54:25.527Z,19.70
2018-04-24T17:56:53.673Z,19.70
2018-04-24T17:59:22.559Z,19.60
2018-04-24T18:01:51.495Z,19.60
2018-04-24T18:04:19.661Z,19.60
2018-04-24T18:06:47.815Z,19.60
2018-04-24T18:09:16.697Z,19.60
2018-04-24T18:11:45.609Z,19.50
2018-04-24T18:14:13.765Z,19.60
2018-04-24T18:16:42.669Z,19.50
2018-04-24T18:19:10.821Z,19.50
2018-04-24T18:21:39.717Z,19.50
2018-04-24T18:24:08.607Z,19.50
2018-04-24T18:26:37.665Z,19.40
2018-04-24T18:29:05.823Z,19.40
2018-04-24T18:31:33.952Z,19.40
2018-04-24T18:34:02.832Z,19.40
2018-04-24T18:36:31.767Z,19.30
2018-04-24T18:38:59.933Z,19.30
2018-04-24T18:41:28.055Z,19.30
2018-04-24T18:43:56.184Z,19.30
2018-04-24T18:46:24.361Z,19.20
2018-04-24T18:48:52.502Z,19.20
2018-04-24T18:51:21.394Z,19.00
2018-04-24T18:53:50.301Z,19.00
2018-04-24T18:56:18.435Z,19.00
2018-04-24T18:58:47.330Z,19.00
2018-04-24T19:01:16.266Z,18.90
2018-04-24T19:03:44.384Z,18.90
2018-04-24T19:06:12.520Z,18.90
2018-04-24T19:08:40.708Z,18.90
2018-04-24T19:11:08.838Z,18.90
2018-04-24T19:13:36.955Z,18.80
2018-04-24T19:16:05.792Z,18.90
2018-04-24T19:18:40.341Z,18.90
2018-04-24T19:21:08.502Z,18.80
2018-04-24T19:23:37.426Z,18.80
2018-04-24T19:26:05.564Z,18.80
2018-04-24T19:28:33.705Z,18.90
2018-04-24T19:31:07.552Z,18.90
2018-04-24T19:33:35.724Z,18.90
2018-04-24T19:36:03.871Z,18.80
2018-04-24T19:38:32.772Z,18.80
2018-04-24T19:44:07.532Z,18.90
2018-04-24T19:46:35.677Z,18.80
2018-04-24T19:49:09.596Z,18.80
2018-04-24T19:51:38.400Z,18.80
2018-04-24T19:54:06.529Z,18.80
2018-04-24T19:56:34.710Z,18.80
2018-04-24T19:59:02.854Z,18.80
2018-04-24T20:01:33.435Z,18.80
2018-04-24T20:04:02.335Z,18.80
2018-04-24T20:06:31.228Z,18.80
2018-04-24T20:09:00.229Z,18.80
2018-04-24T20:11:28.375Z,18.80
2018-04-24T20:13:57.277Z,18.80
2018-04-24T20:16:26.210Z,18.80
2018-04-24T20:18:54.335Z,18.80
2018-04-24T20:21:23.247Z,18.80
2018-04-24T20:23:51.401Z,18.80
2018-04-24T20:26:19.600Z,18.80
2018-04-24T20:28:47.750Z,18.70
2018-04-24T20:31:16.641Z,18.70
2018-04-24T20:33:45.529Z,18.70
2018-04-24T20:36:14.459Z,18.70
2018-04-24T20:38:42.633Z,18.70
2018-04-24T20:41:10.753Z,18.70
2018-04-24T20:43:38.874Z,18.70
2018-04-24T20:46:07.030Z,18.70
2018-04-24T20:48:35.168Z,18.60
2018-04-24T20:51:03.421Z,18.70
2018-04-24T20:53:31.649Z,18.60
2018-04-24T20:55:59.713Z,18.60
2018-04-24T20:58:28.619Z,18.60
2018-04-24T21:00:56.802Z,18.60
2018-04-24T21:03:24.978Z,18.60
2018-04-24T21:05:53.133Z,18.60
2018-04-24T21:08:21.272Z,18.60
2018-04-24T21:10:49.415Z,18.60
2018-04-24T21:13:17.585Z,18.60
2018-04-24T21:15:45.703Z,18.60
2018-04-24T21:18:13.868Z,18.60
2018-04-24T21:20:42.005Z,18.60
2018-04-24T21:23:10.136Z,18.60
2018-04-24T21:25:38.329Z,18.60
2018-04-24T21:28:06.544Z,18.60
2018-04-24T21:30:34.657Z,18.50
2018-04-24T21:33:03.541Z,18.50
2018-04-24T21:35:32.471Z,18.50
2018-04-24T21:38:00.637Z,18.50
2018-04-24T21:40:28.753Z,18.50
2018-04-24T21:42:56.873Z,18.40
2018-04-24T21:45:25.017Z,18.50
2018-04-24T21:47:53.171Z,18.40
2018-04-24T21:50:21.311Z,18.40
2018-04-24T21:52:49.429Z,18.40
2018-04-24T21:55:17.641Z,18.40
2018-04-24T21:57:45.811Z,18.30
2018-04-24T22:00:15.849Z,18.30
2018-04-24T22:02:44.014Z,18.30
2018-04-24T22:05:12.121Z,18.30
2018-04-24T22:07:40.275Z,18.30
2018-04-24T22:10:08.413Z,18.30
2018-04-24T22:12:37.317Z,18.30
2018-04-24T22:15:05.449Z,18.30
2018-04-24T22:17:33.589Z,18.30
2018-04-24T22:20:01.730Z,18.30
2018-04-24T22:22:30.608Z,18.30
2018-04-24T22:24:59.502Z,18.20
2018-04-24T22:27:28.404Z,18.30
2018-04-24T22:29:56.558Z,18.20
2018-04-24T22:32:25.445Z,18.20
2018-04-24T22:34:54.340Z,18.20
2018-04-24T22:37:23.337Z,18.20
2018-04-24T22:39:51.424Z,18.20
2018-04-24T22:42:19.550Z,18.20
2018-04-24T22:44:47.668Z,18.20
2018-04-24T22:47:15.820Z,18.10
2018-04-24T22:49:43.953Z,18.20
2018-04-24T22:52:12.085Z,18.20
2018-04-24T22:54:40.960Z,18.10
2018-04-24T22:57:09.870Z,18.10
2018-04-24T22:59:38.764Z,18.10
2018-04-24T23:02:06.899Z,18.10
2018-04-24T23:04:35.036Z,18.00
2018-04-24T23:07:03.185Z,18.00
2018-04-24T23:09:31.328Z,18.00
2018-04-24T23:12:12.280Z,17.90
2018-04-24T23:14:52.471Z,18.00
2018-04-24T23:17:32.390Z,17.90
2018-04-24T23:20:12.392Z,17.90
2018-04-24T23:22:41.252Z,17.80
2018-04-24T23:25:10.158Z,17.80
2018-04-24T23:27:39.056Z,17.70
2018-04-24T23:30:07.544Z,17.70
2018-04-24T23:32:35.676Z,17.70
2018-04-24T23:35:03.812Z,17.60
2018-04-24T23:37:31.961Z,17.60
2018-04-24T23:40:00.100Z,17.50
2018-04-24T23:42:29.004Z,17.40
2018-04-24T23:44:57.896Z,17.40
2018-04-24T23:47:26.810Z,17.40
2018-04-24T23:49:54.951Z,17.40
2018-04-24T23:52:23.872Z,17.30
2018-04-24T23:54:52.020Z,17.30
2018-04-24T23:57:20.944Z,17.20
2018-04-24T23:59:49.080Z,17.20
